Time;durP1;ratioP1;P1;durP2;ratioP2;P2;SDS_P1;SDS_P2;PMS_P1;PMS_P2;Temp;Humidity;BMP_temperature;BMP_pressure;BME280_temperature;BME280_humidity;BME280_pressure;Samples;Min_cycle;Max_cycle;Signal;HPM_P1;HPM_P2
2021/12/15 00:00:28;;;;;;;33.65;16.80;;;9.60;99.90;;;;;;5099095;28;20070;-66
2021/12/15 00:02:54;;;;;;;40.60;18.30;;;9.50;99.90;;;;;;5106140;28;20104;-66
2021/12/15 00:05:24;;;;;;;40.15;18.48;;;9.60;99.90;;;;;;5082731;28;20055;-66
2021/12/15 00:07:53;;;;;;;38.60;19.13;;;9.60;99.90;;;;;;5108407;28;20044;-66
2021/12/15 00:10:20;;;;;;;35.40;16.33;;;9.70;99.90;;;;;;5090547;28;20123;-66
2021/12/15 00:12:46;;;;;;;33.97;17.42;;;9.60;99.90;;;;;;5105935;28;20066;-66
2021/12/15 00:15:11;;;;;;;36.10;17.08;;;9.60;99.90;;;;;;5110286;28;20051;-66
2021/12/15 00:17:37;;;;;;;37.65;17.52;;;9.60;99.90;;;;;;5109995;28;20097;-66
2021/12/15 00:20:09;;;;;;;46.85;18.45;;;9.60;99.90;;;;;;5110811;28;20127;-65
2021/12/15 00:22:36;;;;;;;38.17;18.25;;;9.60;99.90;;;;;;5110034;28;20056;-66
2021/12/15 00:25:05;;;;;;;37.28;19.10;;;9.60;99.90;;;;;;5111638;28;20075;-66
2021/12/15 00:27:31;;;;;;;38.22;18.90;;;9.60;99.90;;;;;;5110480;28;20047;-66
2021/12/15 00:29:56;;;;;;;52.75;20.40;;;9.60;99.90;;;;;;5111516;28;20081;-66
2021/12/15 00:32:22;;;;;;;41.95;19.80;;;9.70;99.90;;;;;;5111455;28;20043;-66
2021/12/15 00:34:50;;;;;;;38.28;19.73;;;9.60;99.90;;;;;;5110349;28;20047;-66
2021/12/15 00:37:17;;;;;;;40.78;20.23;;;9.60;99.90;;;;;;5110300;28;20055;-66
2021/12/15 00:39:42;;;;;;;48.38;20.65;;;9.60;99.90;;;;;;5109361;28;20062;-66
2021/12/15 00:42:09;;;;;;;42.40;19.90;;;9.60;99.90;;;;;;5110218;28;20056;-66
2021/12/15 00:44:35;;;;;;;34.22;18.80;;;9.70;99.90;;;;;;5111111;28;20127;-66
2021/12/15 00:47:02;;;;;;;42.42;22.25;;;9.60;99.90;;;;;;5110663;28;20100;-66
2021/12/15 00:49:28;;;;;;;42.60;22.65;;;9.70;99.90;;;;;;5111202;28;20438;-66
2021/12/15 00:51:54;;;;;;;41.08;19.05;;;9.70;99.90;;;;;;5111261;28;20090;-66
2021/12/15 00:54:22;;;;;;;35.25;20.00;;;9.60;99.90;;;;;;5110532;28;20485;-66
2021/12/15 00:56:49;;;;;;;46.72;19.70;;;9.80;99.90;;;;;;5109659;28;20051;-66
2021/12/15 00:59:14;;;;;;;34.88;18.27;;;9.70;99.90;;;;;;5109906;28;20036;-66
2021/12/15 01:01:40;;;;;;;41.90;19.98;;;9.70;99.90;;;;;;5108788;28;20043;-66
2021/12/15 01:04:07;;;;;;;40.55;19.30;;;9.70;99.90;;;;;;5113282;28;20117;-65
2021/12/15 01:06:33;;;;;;;41.50;18.10;;;9.70;99.90;;;;;;5115199;28;20051;-66
2021/12/15 01:09:03;;;;;;;33.75;16.52;;;9.80;99.90;;;;;;5114514;28;20044;-66
2021/12/15 01:11:55;;;;;;;35.55;17.23;;;9.80;99.90;;;;;;5113589;28;20126;-66
2021/12/15 01:19:53;;;;;;;33.88;16.30;;;9.70;99.90;;;;;;5113318;28;20051;-66
2021/12/15 01:22:23;;;;;;;38.67;19.08;;;9.80;99.90;;;;;;5114332;28;20078;-66
2021/12/15 01:24:50;;;;;;;37.35;18.15;;;9.70;99.90;;;;;;5113221;28;20051;-66
2021/12/15 01:27:16;;;;;;;33.78;17.23;;;9.70;99.90;;;;;;5113571;28;20047;-66
2021/12/15 01:29:42;;;;;;;28.10;15.85;;;9.70;99.90;;;;;;5112518;28;20043;-66
2021/12/15 01:32:08;;;;;;;35.85;17.55;;;9.80;99.90;;;;;;5114848;28;20051;-66
2021/12/15 01:34:34;;;;;;;33.58;16.48;;;9.70;99.90;;;;;;5114387;27;20062;-65
2021/12/15 01:37:00;;;;;;;36.95;18.38;;;9.70;99.90;;;;;;5113863;28;20572;-66
2021/12/15 01:39:26;;;;;;;39.85;20.05;;;9.60;99.90;;;;;;5114483;28;20043;-66
2021/12/15 01:41:56;;;;;;;34.47;17.27;;;9.70;99.90;;;;;;5114491;28;20439;-66
2021/12/15 01:46:57;;;;;;;35.55;19.17;;;9.70;99.90;;;;;;5114298;28;20055;-66
2021/12/15 01:49:43;;;;;;;56.53;21.73;;;9.70;99.90;;;;;;5113524;28;20409;-66
2021/12/15 01:52:31;;;;;;;42.42;20.65;;;9.60;99.90;;;;;;5113792;28;20069;-66
2021/12/15 01:55:00;;;;;;;37.15;20.13;;;9.70;99.90;;;;;;5114356;28;20051;-66
2021/12/15 01:57:29;;;;;;;41.85;22.13;;;9.60;99.90;;;;;;5113451;28;20048;-66
2021/12/15 01:59:55;;;;;;;39.00;21.48;;;9.70;99.90;;;;;;5114227;28;20035;-66
2021/12/15 02:02:22;;;;;;;39.83;22.70;;;9.70;99.90;;;;;;5112743;28;20054;-66
2021/12/15 02:04:49;;;;;;;34.38;20.00;;;9.70;99.90;;;;;;5113215;28;20039;-66
2021/12/15 02:07:16;;;;;;;41.42;22.45;;;9.70;99.90;;;;;;5112666;28;20058;-66
2021/12/15 02:12:23;;;;;;;47.00;22.23;;;9.70;99.90;;;;;;5113382;28;20464;-66
2021/12/15 02:14:49;;;;;;;50.15;24.83;;;9.70;99.90;;;;;;5111103;28;20055;-66
2021/12/15 02:17:15;;;;;;;63.20;23.50;;;9.70;99.90;;;;;;5114098;28;20040;-66
2021/12/15 02:19:41;;;;;;;43.92;22.52;;;9.70;99.90;;;;;;5111511;28;20054;-66
2021/12/15 02:22:07;;;;;;;48.70;25.08;;;9.70;99.90;;;;;;5112809;28;20055;-66
2021/12/15 02:24:35;;;;;;;53.30;25.73;;;9.80;99.90;;;;;;5129608;27;20130;-66
2021/12/15 02:27:03;;;;;;;45.50;24.40;;;9.70;99.90;;;;;;5112998;28;20051;-66
2021/12/15 02:29:34;;;;;;;41.67;22.52;;;9.70;99.90;;;;;;5113421;28;20048;-66
2021/12/15 02:39:42;;;;;;;42.42;21.60;;;9.70;99.90;;;;;;5112356;28;20494;-66
2021/12/15 02:42:08;;;;;;;43.88;22.38;;;9.80;99.90;;;;;;5112038;28;20047;-66
2021/12/15 02:44:34;;;;;;;44.33;24.95;;;9.70;99.90;;;;;;5113111;28;20047;-66
2021/12/15 02:47:00;;;;;;;48.05;23.25;;;9.80;99.90;;;;;;5112613;28;20044;-66
2021/12/15 02:49:28;;;;;;;40.70;21.92;;;9.70;99.90;;;;;;5129022;27;20056;-66
2021/12/15 02:51:56;;;;;;;47.97;23.95;;;9.70;99.90;;;;;;5113199;28;20051;-66
2021/12/15 02:54:23;;;;;;;43.63;23.83;;;9.70;99.90;;;;;;5111303;28;20051;-66
2021/12/15 02:56:52;;;;;;;42.17;23.25;;;9.70;99.90;;;;;;5104898;28;20055;-66
2021/12/15 02:59:25;;;;;;;44.78;25.38;;;9.70;99.90;;;;;;5111717;28;20508;-66
2021/12/15 03:02:06;;;;;;;50.63;26.13;;;9.70;99.90;;;;;;5091888;28;20088;-66
2021/12/15 03:04:42;;;;;;;47.97;24.75;;;9.80;99.90;;;;;;5095849;28;20092;-66
2021/12/15 03:07:16;;;;;;;40.15;21.10;;;9.80;99.90;;;;;;5112787;28;20091;-66
2021/12/15 03:15:24;;;;;;;43.42;23.20;;;9.80;99.90;;;;;;5110683;28;20059;-66
2021/12/15 03:18:01;;;;;;;46.80;24.77;;;9.70;99.90;;;;;;5112455;28;20685;-66
2021/12/15 03:20:35;;;;;;;53.95;24.15;;;9.80;99.90;;;;;;5112768;28;20051;-66
2021/12/15 03:23:02;;;;;;;41.65;24.00;;;9.70;99.90;;;;;;5111941;28;20120;-66
2021/12/15 03:25:30;;;;;;;43.53;21.17;;;9.80;99.90;;;;;;5111171;28;20035;-66
2021/12/15 03:33:44;;;;;;;48.95;25.80;;;9.80;99.90;;;;;;5104139;28;20406;-66
2021/12/15 03:36:14;;;;;;;49.78;25.98;;;9.70;99.90;;;;;;5099972;28;20051;-66
2021/12/15 03:38:41;;;;;;;45.03;23.50;;;9.80;99.90;;;;;;5099038;28;20119;-66
2021/12/15 03:41:09;;;;;;;51.83;27.48;;;9.70;99.90;;;;;;5098349;27;20059;-66
2021/12/15 03:43:37;;;;;;;48.10;24.70;;;9.80;99.90;;;;;;5107904;28;20043;-66
2021/12/15 03:46:08;;;;;;;44.95;24.55;;;9.70;99.90;;;;;;5099298;28;20075;-66
2021/12/15 03:48:37;;;;;;;48.40;25.17;;;9.80;99.90;;;;;;5090386;28;20055;-66
2021/12/15 03:51:03;;;;;;;44.95;21.92;;;9.70;99.90;;;;;;5105327;28;20047;-66
2021/12/15 03:53:29;;;;;;;42.17;24.05;;;9.70;99.90;;;;;;5110445;28;20046;-66
2021/12/15 03:55:55;;;;;;;47.15;26.23;;;9.70;99.90;;;;;;5112062;28;20043;-66
2021/12/15 03:58:23;;;;;;;46.63;25.50;;;9.60;99.90;;;;;;5110290;28;20088;-66
2021/12/15 04:00:58;;;;;;;41.08;24.88;;;9.70;99.90;;;;;;5111571;28;20047;-66
2021/12/15 04:03:33;;;;;;;48.33;25.80;;;9.70;99.90;;;;;;5100102;28;20058;-66
2021/12/15 04:06:02;;;;;;;48.70;25.65;;;9.80;99.90;;;;;;5100654;28;20185;-66
2021/12/15 04:08:30;;;;;;;44.22;24.55;;;9.70;99.90;;;;;;5111724;28;20130;-66
2021/12/15 04:10:57;;;;;;;42.33;23.13;;;9.70;99.90;;;;;;5099165;28;20063;-66
2021/12/15 04:13:23;;;;;;;44.03;24.13;;;9.60;99.90;;;;;;5091187;28;20083;-66
2021/12/15 04:16:03;;;;;;;44.45;24.02;;;9.70;99.90;;;;;;5089705;28;20083;-66
2021/12/15 04:18:29;;;;;;;41.50;24.70;;;9.70;99.90;;;;;;5090306;28;20044;-66
2021/12/15 04:20:55;;;;;;;43.88;23.02;;;9.70;99.90;;;;;;5091365;28;20044;-66
2021/12/15 04:23:21;;;;;;;42.15;21.30;;;9.80;99.90;;;;;;5091210;28;20121;-66
2021/12/15 04:25:50;;;;;;;44.20;22.35;;;9.70;99.90;;;;;;5090160;28;20036;-66
2021/12/15 04:28:20;;;;;;;47.38;23.88;;;9.80;99.90;;;;;;5089796;28;20121;-66
2021/12/15 04:30:49;;;;;;;37.55;20.92;;;9.80;99.90;;;;;;5090079;28;20052;-66
2021/12/15 04:33:23;;;;;;;38.03;21.98;;;9.70;99.90;;;;;;5098886;28;20039;-66
2021/12/15 04:35:53;;;;;;;42.85;21.98;;;9.80;99.90;;;;;;5110553;28;20490;-66
2021/12/15 04:38:20;;;;;;;37.35;22.10;;;9.80;99.90;;;;;;5094804;28;20059;-66
2021/12/15 04:40:46;;;;;;;41.17;21.13;;;9.80;99.90;;;;;;5078850;28;20118;-66
2021/12/15 04:43:12;;;;;;;53.13;25.33;;;9.80;99.90;;;;;;5090535;28;20118;-66
2021/12/15 04:45:38;;;;;;;40.63;22.40;;;9.80;99.90;;;;;;5080929;28;20040;-66
2021/12/15 04:48:05;;;;;;;42.72;22.98;;;9.80;99.90;;;;;;5080675;28;20097;-66
2021/12/15 04:50:32;;;;;;;41.25;23.58;;;9.80;99.90;;;;;;5069835;28;20079;-67
2021/12/15 04:53:00;;;;;;;42.58;19.05;;;9.80;99.90;;;;;;5067839;28;20119;-67
2021/12/15 04:55:29;;;;;;;51.28;24.00;;;9.80;99.90;;;;;;5071470;28;20123;-66
2021/12/15 04:57:56;;;;;;;42.75;22.63;;;9.70;99.90;;;;;;5077561;28;20044;-67
2021/12/15 05:00:26;;;;;;;39.55;22.35;;;9.70;99.90;;;;;;5068231;28;20052;-67
2021/12/15 05:02:52;;;;;;;39.38;22.13;;;9.70;99.90;;;;;;5079490;28;20093;-67
2021/12/15 05:05:20;;;;;;;42.53;21.55;;;9.70;99.90;;;;;;5071363;28;20053;-67
2021/12/15 05:07:46;;;;;;;41.00;22.70;;;9.80;99.90;;;;;;5068795;28;20048;-67
2021/12/15 05:10:12;;;;;;;45.47;23.20;;;9.70;99.90;;;;;;5078816;28;20044;-66
2021/12/15 05:12:38;;;;;;;42.80;21.02;;;9.70;99.90;;;;;;5070413;28;20061;-66
2021/12/15 05:15:06;;;;;;;44.70;22.90;;;9.70;99.90;;;;;;5073909;28;20061;-67
2021/12/15 05:17:32;;;;;;;45.42;23.95;;;9.70;99.90;;;;;;5074450;28;20068;-66
2021/12/15 05:20:02;;;;;;;46.45;22.20;;;9.80;99.90;;;;;;5074146;28;20079;-66
2021/12/15 05:22:28;;;;;;;48.20;23.98;;;9.80;99.90;;;;;;5101938;28;20494;-66
2021/12/15 05:24:53;;;;;;;39.10;23.10;;;9.80;99.90;;;;;;5098290;28;20052;-66
2021/12/15 05:27:19;;;;;;;40.78;22.45;;;9.70;99.90;;;;;;5078200;28;20101;-67
2021/12/15 05:29:47;;;;;;;42.25;24.58;;;9.60;99.90;;;;;;5089016;28;20039;-67
2021/12/15 05:32:18;;;;;;;39.30;21.00;;;9.70;99.90;;;;;;5090083;28;20044;-66
2021/12/15 05:34:46;;;;;;;38.20;21.10;;;9.60;99.90;;;;;;5088058;28;20489;-66
2021/12/15 05:37:13;;;;;;;48.65;24.63;;;9.70;99.90;;;;;;5094335;28;20052;-66
2021/12/15 05:39:40;;;;;;;48.95;22.20;;;9.70;99.90;;;;;;5094506;28;20051;-66
2021/12/15 05:42:06;;;;;;;45.80;23.85;;;9.70;99.90;;;;;;5110254;28;20082;-66
2021/12/15 05:44:31;;;;;;;41.63;21.38;;;9.60;99.90;;;;;;5094019;28;20486;-67
2021/12/15 05:46:59;;;;;;;40.35;21.08;;;9.60;99.90;;;;;;5089015;28;20047;-66
2021/12/15 05:49:25;;;;;;;40.90;21.85;;;9.60;99.90;;;;;;5089665;28;20053;-66
2021/12/15 05:51:51;;;;;;;42.80;21.80;;;9.60;99.90;;;;;;5093415;28;20407;-66
2021/12/15 05:54:17;;;;;;;47.58;23.70;;;9.70;99.90;;;;;;5093888;28;20048;-66
2021/12/15 05:56:43;;;;;;;44.15;22.40;;;9.70;99.90;;;;;;5092890;28;20051;-66
2021/12/15 05:59:09;;;;;;;45.65;21.55;;;9.60;99.90;;;;;;5093881;28;20391;-66
2021/12/15 06:01:35;;;;;;;41.92;21.83;;;9.60;99.90;;;;;;5093561;28;20071;-66
2021/12/15 06:04:02;;;;;;;41.88;21.23;;;9.70;99.90;;;;;;5092993;28;20390;-66
2021/12/15 06:06:28;;;;;;;41.08;23.60;;;9.70;99.90;;;;;;5092367;28;20444;-66
2021/12/15 06:08:55;;;;;;;47.92;24.42;;;9.70;99.90;;;;;;5092289;28;20052;-66
2021/12/15 06:11:20;;;;;;;47.67;23.95;;;9.80;99.90;;;;;;5092518;28;20128;-66
2021/12/15 06:13:48;;;;;;;48.17;24.45;;;9.70;99.90;;;;;;5098878;28;20131;-66
2021/12/15 06:16:18;;;;;;;46.85;23.17;;;9.70;99.90;;;;;;5106575;28;20052;-66
2021/12/15 06:18:45;;;;;;;45.67;24.00;;;9.80;99.90;;;;;;5108585;28;20063;-66
2021/12/15 06:21:10;;;;;;;40.15;22.30;;;9.70;99.90;;;;;;5099468;28;20136;-66
2021/12/15 06:23:37;;;;;;;43.58;22.63;;;9.70;99.90;;;;;;5109246;27;20134;-66
2021/12/15 06:26:05;;;;;;;34.25;22.52;;;9.80;99.90;;;;;;5092686;28;20093;-66
2021/12/15 06:28:32;;;;;;;43.92;24.15;;;9.90;99.90;;;;;;5094898;28;20098;-66
2021/12/15 06:30:59;;;;;;;43.25;21.40;;;9.70;99.90;;;;;;5113451;28;20036;-66
2021/12/15 06:33:26;;;;;;;44.20;23.10;;;9.70;99.90;;;;;;5111754;28;20120;-66
2021/12/15 06:35:53;;;;;;;45.22;23.85;;;9.80;99.90;;;;;;5111963;28;20052;-66
2021/12/15 06:38:24;;;;;;;47.72;24.98;;;9.90;99.90;;;;;;5113386;28;20122;-66
2021/12/15 06:40:50;;;;;;;42.75;22.20;;;9.70;99.90;;;;;;5113319;28;20063;-66
2021/12/15 06:43:16;;;;;;;43.80;23.05;;;9.70;99.90;;;;;;5112046;28;20047;-66
2021/12/15 06:46:39;;;;;;;46.65;23.70;;;9.80;99.90;;;;;;5112280;28;20100;-66
2021/12/15 06:59:26;;;;;;;45.40;21.30;;;9.70;99.90;;;;;;5092446;28;20055;-66
2021/12/15 07:01:52;;;;;;;47.17;21.40;;;9.80;99.90;;;;;;5090416;28;20039;-65
2021/12/15 07:04:20;;;;;;;39.05;21.05;;;9.80;99.90;;;;;;5092514;28;20169;-66
2021/12/15 07:06:46;;;;;;;37.67;20.50;;;9.80;99.90;;;;;;5091535;28;20052;-66
2021/12/15 07:09:12;;;;;;;43.42;22.48;;;9.80;99.90;;;;;;5091474;28;20044;-66
2021/12/15 07:11:38;;;;;;;37.08;21.05;;;9.80;99.90;;;;;;5092271;28;20505;-66
2021/12/15 07:14:03;;;;;;;35.33;21.40;;;9.80;99.90;;;;;;5093357;28;20055;-66
2021/12/15 07:16:32;;;;;;;34.53;19.10;;;9.80;99.90;;;;;;5110623;28;20051;-66
2021/12/15 07:19:07;;;;;;;36.75;20.02;;;9.80;99.90;;;;;;5098527;28;20128;-66
2021/12/15 07:21:37;;;;;;;39.35;19.95;;;9.80;99.90;;;;;;5096145;28;20048;-66
2021/12/15 07:24:03;;;;;;;42.13;20.48;;;9.90;99.90;;;;;;5099469;28;20044;-66
2021/12/15 07:26:28;;;;;;;31.52;18.95;;;9.70;99.90;;;;;;5102949;28;20047;-66
2021/12/15 07:28:54;;;;;;;36.47;18.75;;;9.80;99.90;;;;;;5096067;28;20059;-66
2021/12/15 07:31:20;;;;;;;32.13;17.15;;;9.80;99.90;;;;;;5096677;28;20486;-66
2021/12/15 07:33:46;;;;;;;31.27;16.33;;;9.80;99.90;;;;;;5096726;28;20052;-66
2021/12/15 07:36:13;;;;;;;32.28;17.60;;;9.80;99.90;;;;;;5092140;28;20051;-66
2021/12/15 07:38:41;;;;;;;33.30;18.05;;;9.80;99.90;;;;;;5094110;28;20044;-66
2021/12/15 07:41:32;;;;;;;33.75;18.23;;;9.80;99.90;;;;;;5097171;28;20044;-66
2021/12/15 07:43:59;;;;;;;35.05;17.23;;;9.80;99.90;;;;;;5099446;28;20051;-66
2021/12/15 07:46:26;;;;;;;35.80;16.25;;;9.80;99.90;;;;;;5093428;28;20102;-66
2021/12/15 07:48:52;;;;;;;31.98;16.15;;;9.80;99.90;;;;;;5075923;28;20055;-66
2021/12/15 07:51:17;;;;;;;34.05;17.50;;;9.80;99.90;;;;;;5109282;28;20044;-66
2021/12/15 07:53:43;;;;;;;29.98;14.93;;;9.80;99.90;;;;;;5102418;28;20071;-66
2021/12/15 07:56:09;;;;;;;32.72;16.25;;;9.80;99.90;;;;;;5110073;28;20051;-66
2021/12/15 07:58:35;;;;;;;27.98;15.10;;;9.80;99.90;;;;;;5110724;28;20098;-66
2021/12/15 08:01:03;;;;;;;27.95;14.25;;;9.80;99.90;;;;;;5086729;28;20509;-66
2021/12/15 08:03:31;;;;;;;26.00;15.02;;;9.80;99.90;;;;;;5094360;28;20088;-66
2021/12/15 08:05:57;;;;;;;26.73;14.90;;;9.80;99.90;;;;;;5101764;28;20059;-66
2021/12/15 08:08:23;;;;;;;32.83;14.15;;;9.80;99.90;;;;;;5100903;28;20100;-66
2021/12/15 08:10:53;;;;;;;20.63;12.57;;;9.80;99.90;;;;;;5091581;28;20105;-66
2021/12/15 08:13:18;;;;;;;32.55;13.48;;;9.70;99.90;;;;;;5070301;28;20088;-66
2021/12/15 08:15:44;;;;;;;26.55;13.88;;;9.80;99.90;;;;;;5104723;28;20094;-66
2021/12/15 08:18:11;;;;;;;26.20;13.10;;;9.70;99.90;;;;;;5109889;28;20050;-66
2021/12/15 08:20:37;;;;;;;26.48;12.30;;;9.60;99.90;;;;;;5111467;28;20108;-66
2021/12/15 08:23:04;;;;;;;22.98;11.80;;;9.70;99.90;;;;;;5093630;28;20125;-66
2021/12/15 08:25:31;;;;;;;18.15;11.55;;;9.70;99.90;;;;;;5088895;28;20056;-66
2021/12/15 08:27:58;;;;;;;21.38;11.77;;;9.60;99.90;;;;;;5091320;28;20086;-66
2021/12/15 08:30:28;;;;;;;22.27;11.77;;;9.70;99.90;;;;;;5093878;28;20051;-68
2021/12/15 08:32:57;;;;;;;19.38;10.63;;;9.60;99.90;;;;;;5094953;28;20401;-67
2021/12/15 08:35:27;;;;;;;25.65;11.48;;;9.50;99.90;;;;;;5105965;28;20394;-70
2021/12/15 08:37:54;;;;;;;25.35;10.90;;;9.60;99.90;;;;;;5100805;28;20044;-69
2021/12/15 08:40:21;;;;;;;19.85;10.60;;;9.50;99.90;;;;;;5088362;28;20044;-68
2021/12/15 08:42:47;;;;;;;18.08;11.05;;;9.60;99.90;;;;;;5092499;28;20048;-68
2021/12/15 08:45:14;;;;;;;23.02;11.00;;;9.50;99.90;;;;;;5096993;28;20096;-68
2021/12/15 08:47:40;;;;;;;24.90;12.45;;;9.50;99.90;;;;;;5098678;28;20043;-67
2021/12/15 08:50:09;;;;;;;19.73;12.10;;;9.60;99.90;;;;;;5090453;28;20048;-68
2021/12/15 08:52:35;;;;;;;19.15;11.23;;;9.60;99.90;;;;;;5087448;28;20045;-67
2021/12/15 08:55:02;;;;;;;26.73;12.73;;;9.60;99.90;;;;;;5091867;28;20056;-68
2021/12/15 08:57:28;;;;;;;29.73;13.45;;;9.60;99.90;;;;;;5108209;28;20097;-67
2021/12/15 08:59:54;;;;;;;28.08;12.73;;;8.70;99.90;;;;;;5088233;28;20444;-67
2021/12/15 09:02:19;;;;;;;29.77;13.15;;;9.60;99.90;;;;;;5090398;28;20472;-68
2021/12/15 09:04:45;;;;;;;28.88;12.57;;;9.60;99.90;;;;;;5107776;28;20047;-68
2021/12/15 09:07:11;;;;;;;21.80;11.52;;;9.70;99.90;;;;;;5109153;28;20407;-68
2021/12/15 09:09:36;;;;;;;24.85;12.75;;;9.70;99.90;;;;;;5111112;28;20051;-68
2021/12/15 09:12:03;;;;;;;20.05;11.90;;;9.70;99.90;;;;;;5092696;28;20127;-68
2021/12/15 09:14:29;;;;;;;24.73;13.50;;;9.60;99.90;;;;;;5104388;28;20064;-68
2021/12/15 09:16:57;;;;;;;24.45;11.35;;;9.70;99.90;;;;;;5087040;28;20054;-68
2021/12/15 09:19:23;;;;;;;26.20;11.65;;;9.70;99.90;;;;;;5100871;28;20109;-68
2021/12/15 09:21:51;;;;;;;23.88;11.85;;;9.90;99.90;;;;;;5108889;28;20096;-67
2021/12/15 09:24:19;;;;;;;26.73;13.18;;;9.90;99.90;;;;;;5106659;28;20067;-68
2021/12/15 09:26:45;;;;;;;22.00;14.02;;;10.00;99.90;;;;;;5114454;28;20055;-67
2021/12/15 09:29:11;;;;;;;30.40;12.93;;;10.10;99.90;;;;;;5112603;28;20051;-69
2021/12/15 09:31:38;;;;;;;28.90;13.10;;;10.00;99.90;;;;;;5092018;28;20056;-67
2021/12/15 09:34:06;;;;;;;26.15;14.07;;;10.10;99.90;;;;;;5073118;28;20055;-67
2021/12/15 09:36:32;;;;;;;29.88;15.35;;;9.90;99.90;;;;;;5092071;28;20494;-67
2021/12/15 09:39:03;;;;;;;23.80;11.98;;;10.10;99.90;;;;;;5092783;28;20437;-67
2021/12/15 09:41:30;;;;;;;29.30;12.93;;;10.10;99.90;;;;;;5105576;28;20043;-68
2021/12/15 09:43:58;;;;;;;22.27;11.75;;;10.00;99.90;;;;;;5087245;28;20060;-67
2021/12/15 09:46:35;;;;;;;26.20;13.13;;;10.10;99.90;;;;;;5078323;28;20056;-67
2021/12/15 10:19:40;;;;;;;11.20;7.10;;;10.10;99.90;;;;;;5084469;28;20044;-66
2021/12/15 10:22:30;;;;;;;17.15;7.38;;;10.10;99.90;;;;;;5086702;28;20441;-66
2021/12/15 10:25:03;;;;;;;12.20;6.07;;;10.20;99.90;;;;;;5092446;28;20489;-66
2021/12/15 10:27:34;;;;;;;12.13;6.45;;;10.20;99.90;;;;;;5090344;28;20447;-66
2021/12/15 10:30:07;;;;;;;12.63;5.78;;;10.20;99.90;;;;;;5090009;28;20051;-66
2021/12/15 10:32:36;;;;;;;14.25;6.50;;;10.20;99.90;;;;;;5091004;28;20058;-66
2021/12/15 10:35:14;;;;;;;13.98;6.88;;;10.20;99.90;;;;;;5088149;28;20048;-66
2021/12/15 10:37:41;;;;;;;12.18;6.40;;;10.30;99.90;;;;;;5081693;28;20382;-65
2021/12/15 10:40:19;;;;;;;14.98;6.88;;;10.30;99.90;;;;;;5083914;28;20429;-65
2021/12/15 10:42:47;;;;;;;19.23;6.53;;;10.30;99.90;;;;;;5080309;28;20100;-67
2021/12/15 10:45:15;;;;;;;13.48;6.88;;;10.30;99.90;;;;;;5080250;28;20502;-66
2021/12/15 10:47:43;;;;;;;11.70;6.68;;;10.30;99.90;;;;;;5086768;28;20047;-66
2021/12/15 10:50:19;;;;;;;14.43;6.82;;;10.30;99.90;;;;;;5077007;28;20098;-66
2021/12/15 10:52:57;;;;;;;12.05;6.15;;;10.30;99.90;;;;;;5069772;28;20080;-65
2021/12/15 10:55:35;;;;;;;17.70;7.63;;;10.40;99.90;;;;;;5072852;28;20059;-65
2021/12/15 10:58:02;;;;;;;15.52;7.30;;;10.40;99.90;;;;;;5071394;28;20119;-65
2021/12/15 11:00:35;;;;;;;14.52;6.85;;;10.40;99.90;;;;;;5076270;28;20105;-65
2021/12/15 11:03:03;;;;;;;10.85;6.38;;;10.50;99.90;;;;;;5079073;28;20053;-65
2021/12/15 11:05:29;;;;;;;14.02;6.03;;;10.50;99.90;;;;;;5075443;28;20055;-65
2021/12/15 11:07:58;;;;;;;10.43;5.90;;;10.50;99.90;;;;;;5079563;28;20036;-66
2021/12/15 11:10:36;;;;;;;7.80;5.53;;;10.50;99.90;;;;;;5071547;28;20132;-65
2021/12/15 11:13:12;;;;;;;11.15;4.57;;;10.50;99.90;;;;;;5070492;28;20048;-65
2021/12/15 11:15:47;;;;;;;14.02;5.50;;;10.50;99.90;;;;;;5085408;28;20087;-65
2021/12/15 11:18:17;;;;;;;7.65;5.03;;;10.60;99.90;;;;;;5079513;28;20063;-65
2021/12/15 11:20:49;;;;;;;9.70;5.15;;;10.60;99.90;;;;;;5087992;28;20044;-65
2021/12/15 11:23:23;;;;;;;12.82;5.78;;;10.60;99.90;;;;;;5090645;28;20383;-65
2021/12/15 11:25:55;;;;;;;9.10;4.72;;;10.60;99.90;;;;;;5094931;28;20123;-66
2021/12/15 11:28:28;;;;;;;;;;;10.50;99.90;;;;;;5075954;28;20050;-65
2021/12/15 11:31:07;;;;;;;8.80;4.68;;;10.50;99.90;;;;;;5077851;28;19946;-66
2021/12/15 11:33:46;;;;;;;13.23;6.88;;;10.50;99.90;;;;;;5079736;28;20063;-65
2021/12/15 11:36:14;;;;;;;15.10;7.50;;;10.40;99.90;;;;;;5092975;28;20040;-65
2021/12/15 11:38:44;;;;;;;20.48;6.45;;;10.40;99.90;;;;;;5086184;28;20040;-65
2021/12/15 11:41:17;;;;;;;15.50;7.43;;;10.40;99.90;;;;;;5084378;28;20052;-65
2021/12/15 11:43:56;;;;;;;14.75;6.60;;;10.40;99.90;;;;;;5089226;28;20063;-66
2021/12/15 11:46:27;;;;;;;8.93;4.68;;;10.40;99.90;;;;;;5089977;28;20414;-65
2021/12/15 11:48:55;;;;;;;15.60;5.87;;;10.40;99.90;;;;;;5088942;28;20399;-65
2021/12/15 11:51:39;;;;;;;10.80;5.63;;;10.40;99.90;;;;;;5093373;28;20043;-65
2021/12/15 11:54:17;;;;;;;11.77;4.78;;;10.40;99.90;;;;;;5094713;28;20059;-65
2021/12/15 11:56:44;;;;;;;9.57;4.75;;;10.50;99.90;;;;;;5080213;28;20072;-65
2021/12/15 11:59:24;;;;;;;10.50;4.28;;;10.60;99.90;;;;;;5089847;28;20040;-66
2021/12/15 12:01:59;;;;;;;9.43;4.28;;;10.50;99.90;;;;;;5092174;28;20525;-66
2021/12/15 12:04:35;;;;;;;10.95;5.15;;;10.60;99.90;;;;;;5086484;28;20114;-66
2021/12/15 12:07:24;;;;;;;8.55;4.10;;;10.50;99.90;;;;;;5084770;28;20123;-66
2021/12/15 12:10:00;;;;;;;10.60;5.10;;;10.60;99.90;;;;;;5089872;28;20048;-66
2021/12/15 12:12:35;;;;;;;18.63;5.43;;;10.50;99.90;;;;;;5087121;28;20402;-66
2021/12/15 12:15:03;;;;;;;10.05;4.55;;;10.50;99.90;;;;;;5098275;28;20043;-66
2021/12/15 12:17:33;;;;;;;7.00;3.97;;;10.50;99.90;;;;;;5086284;28;20044;-67
2021/12/15 12:20:06;;;;;;;7.60;3.20;;;10.50;99.90;;;;;;5087908;28;20403;-66
2021/12/15 12:22:33;;;;;;;8.60;3.53;;;10.50;99.90;;;;;;5088561;28;20044;-66
2021/12/15 12:25:04;;;;;;;7.75;3.67;;;10.60;99.90;;;;;;5090117;28;20537;-67
2021/12/15 12:27:32;;;;;;;8.18;3.08;;;10.60;99.90;;;;;;5090348;28;20123;-66
2021/12/15 12:29:59;;;;;;;8.40;2.83;;;10.70;99.90;;;;;;5089037;28;20522;-66
2021/12/15 12:32:25;;;;;;;10.63;3.15;;;10.70;99.90;;;;;;5089882;28;20051;-66
2021/12/15 12:34:52;;;;;;;11.73;3.42;;;10.70;99.90;;;;;;5089490;28;20048;-67
2021/12/15 12:37:19;;;;;;;12.85;2.97;;;10.80;99.90;;;;;;5081388;28;20145;-66
2021/12/15 12:39:49;;;;;;;5.78;2.78;;;10.80;99.90;;;;;;5103334;28;20398;-67
2021/12/15 12:42:40;;;;;;;4.13;2.05;;;10.70;99.90;;;;;;5087581;28;20048;-67
2021/12/15 12:45:40;;;;;;;3.47;1.75;;;10.70;99.90;;;;;;5076321;28;20101;-66
2021/12/15 12:48:37;;;;;;;4.97;1.73;;;10.70;99.90;;;;;;5080371;28;20049;-66
2021/12/15 12:59:42;;;;;;;6.55;1.48;;;10.40;99.90;;;;;;5071201;28;20052;-67
2021/12/15 13:02:29;;;;;;;4.28;1.50;;;10.40;99.90;;;;;;5073869;28;20060;-67
2021/12/15 13:04:54;;;;;;;4.70;1.85;;;10.40;99.90;;;;;;5084843;28;20119;-67
2021/12/15 13:07:53;;;;;;;5.07;2.00;;;10.30;99.90;;;;;;5076449;28;20178;-67
2021/12/15 13:10:21;;;;;;;3.63;1.30;;;10.40;99.90;;;;;;5105151;28;20476;-67
2021/12/15 13:12:47;;;;;;;4.82;1.60;;;10.40;99.90;;;;;;5093037;28;20125;-67
2021/12/15 13:15:22;;;;;;;6.38;1.65;;;10.40;99.90;;;;;;5094095;28;20484;-67
2021/12/15 13:18:03;;;;;;;5.03;1.42;;;10.40;99.90;;;;;;5083561;28;20044;-67
2021/12/15 13:20:34;;;;;;;5.65;1.40;;;10.40;99.90;;;;;;5092922;28;20500;-67
2021/12/15 13:23:27;;;;;;;2.53;1.27;;;10.30;99.90;;;;;;5088966;28;20048;-67
2021/12/15 13:28:43;;;;;;;3.83;1.77;;;10.30;99.90;;;;;;5076175;28;20076;-67
2021/12/15 13:31:11;;;;;;;4.88;1.83;;;10.30;99.90;;;;;;5092901;28;20055;-67
2021/12/15 13:33:38;;;;;;;4.82;1.75;;;10.20;99.90;;;;;;5074654;28;20053;-67
2021/12/15 13:36:09;;;;;;;3.50;1.60;;;10.20;99.90;;;;;;5086361;28;20114;-67
2021/12/15 13:38:55;;;;;;;5.40;1.63;;;10.20;99.90;;;;;;5089753;28;20044;-67
2021/12/15 13:44:06;;;;;;;7.82;1.80;;;10.10;99.90;;;;;;5085040;28;20087;-71
2021/12/15 13:46:37;;;;;;;7.75;1.70;;;10.10;99.90;;;;;;5083615;28;20407;-70
2021/12/15 13:49:20;;;;;;;4.93;1.55;;;10.10;99.90;;;;;;5087612;28;20093;-71
2021/12/15 13:51:52;;;;;;;4.55;1.80;;;10.00;99.90;;;;;;5084763;28;20048;-66
2021/12/15 13:54:25;;;;;;;4.28;1.20;;;10.00;99.90;;;;;;5091664;28;20063;-67
2021/12/15 13:56:54;;;;;;;5.53;1.70;;;9.90;99.90;;;;;;5088438;28;20058;-70
2021/12/15 13:59:36;;;;;;;4.93;1.40;;;9.90;99.90;;;;;;5084441;28;20044;-69
2021/12/15 14:02:33;;;;;;;4.85;1.10;;;9.70;99.90;;;;;;5101605;28;20063;-68
2021/12/15 14:05:30;;;;;;;3.03;1.50;;;9.70;99.90;;;;;;5113608;28;20436;-69
2021/12/15 14:08:03;;;;;;;2.25;1.30;;;10.20;99.90;;;;;;5091159;28;20478;-71
2021/12/15 14:10:29;;;;;;;4.82;1.42;;;9.40;99.90;;;;;;5080354;28;20087;-70
2021/12/15 14:12:58;;;;;;;1.50;1.02;;;9.30;99.90;;;;;;5076799;28;20084;-70
2021/12/15 14:15:38;;;;;;;3.17;1.60;;;9.30;99.90;;;;;;5076293;28;20053;-70